sensor_id;sensor_type;location;lat;lon;timestamp;temperature;humidity
71733;DHT22;59576;43.478;3.656;2022-11-21T07:11:34;19.70;53.30
71733;DHT22;59576;43.478;3.656;2022-11-21T07:14:00;19.40;53.60
71733;DHT22;59576;43.478;3.656;2022-11-21T07:16:26;19.40;53.20
71733;DHT22;59576;43.478;3.656;2022-11-21T07:18:55;19.50;53.30
71733;DHT22;59576;43.478;3.656;2022-11-21T07:21:20;19.50;53.30
71733;DHT22;59576;43.478;3.656;2022-11-21T07:23:46;19.50;53.10
71733;DHT22;59576;43.478;3.656;2022-11-21T07:26:13;19.50;52.80
71733;DHT22;59576;43.478;3.656;2022-11-21T07:28:38;19.60;52.60
71733;DHT22;59576;43.478;3.656;2022-11-21T07:31:04;19.60;52.70
71733;DHT22;59576;43.478;3.656;2022-11-21T07:33:30;19.60;53.30
71733;DHT22;59576;43.478;3.656;2022-11-21T07:35:56;19.70;53.20
71733;DHT22;59576;43.478;3.656;2022-11-21T07:38:23;19.70;52.70
71733;DHT22;59576;43.478;3.656;2022-11-21T07:40:49;19.70;52.50
71733;DHT22;59576;43.478;3.656;2022-11-21T07:43:15;19.70;52.50
71733;DHT22;59576;43.478;3.656;2022-11-21T07:45:41;19.80;52.50
71733;DHT22;59576;43.478;3.656;2022-11-21T07:48:08;19.80;52.50
71733;DHT22;59576;43.478;3.656;2022-11-21T07:50:34;19.80;53.50
71733;DHT22;59576;43.478;3.656;2022-11-21T07:53:02;19.80;54.20
71733;DHT22;59576;43.478;3.656;2022-11-21T07:55:28;19.80;54.00
71733;DHT22;59576;43.478;3.656;2022-11-21T08:00:23;19.80;54.30
71733;DHT22;59576;43.478;3.656;2022-11-21T08:02:49;19.80;54.20
71733;DHT22;59576;43.478;3.656;2022-11-21T08:05:15;19.80;54.10
71733;DHT22;59576;43.478;3.656;2022-11-21T08:07:40;19.80;53.90
71733;DHT22;59576;43.478;3.656;2022-11-21T08:10:06;19.80;53.70
71733;DHT22;59576;43.478;3.656;2022-11-21T08:12:32;19.80;53.60
71733;DHT22;59576;43.478;3.656;2022-11-21T08:14:58;19.80;53.50
71733;DHT22;59576;43.478;3.656;2022-11-21T08:17:26;19.80;53.40
71733;DHT22;59576;43.478;3.656;2022-11-21T08:19:52;19.90;53.30
71733;DHT22;59576;43.478;3.656;2022-11-21T08:22:18;19.90;53.20
71733;DHT22;59576;43.478;3.656;2022-11-21T08:24:44;19.90;53.10
71733;DHT22;59576;43.478;3.656;2022-11-21T08:27:09;19.90;53.10
71733;DHT22;59576;43.478;3.656;2022-11-21T08:29:35;19.90;53.20
71733;DHT22;59576;43.478;3.656;2022-11-21T08:32:01;19.90;53.10
71733;DHT22;59576;43.478;3.656;2022-11-21T08:34:29;19.90;53.10
71733;DHT22;59576;43.478;3.656;2022-11-21T08:36:55;20.00;52.90
71733;DHT22;59576;43.478;3.656;2022-11-21T08:39:21;19.90;52.90
71733;DHT22;59576;43.478;3.656;2022-11-21T08:41:46;19.90;53.00
71733;DHT22;59576;43.478;3.656;2022-11-21T08:44:28;19.90;52.80
71733;DHT22;59576;43.478;3.656;2022-11-21T08:46:55;20.00;52.60
71733;DHT22;59576;43.478;3.656;2022-11-21T08:49:21;20.00;52.50
71733;DHT22;59576;43.478;3.656;2022-11-21T08:51:46;20.10;52.40
71733;DHT22;59576;43.478;3.656;2022-11-21T08:54:15;20.10;52.40
71733;DHT22;59576;43.478;3.656;2022-11-21T08:56:40;20.10;52.30
71733;DHT22;59576;43.478;3.656;2022-11-21T08:59:07;20.10;52.30
71733;DHT22;59576;43.478;3.656;2022-11-21T09:01:33;20.10;52.20
71733;DHT22;59576;43.478;3.656;2022-11-21T09:03:58;20.10;52.10
71733;DHT22;59576;43.478;3.656;2022-11-21T09:06:24;20.20;52.20
71733;DHT22;59576;43.478;3.656;2022-11-21T09:08:50;20.20;52.00
71733;DHT22;59576;43.478;3.656;2022-11-21T09:11:16;20.20;52.00
71733;DHT22;59576;43.478;3.656;2022-11-21T09:13:41;20.20;52.00
71733;DHT22;59576;43.478;3.656;2022-11-21T09:16:10;20.20;52.10
71733;DHT22;59576;43.478;3.656;2022-11-21T09:18:54;20.20;51.90
71733;DHT22;59576;43.478;3.656;2022-11-21T09:21:20;20.20;52.00
71733;DHT22;59576;43.478;3.656;2022-11-21T09:23:46;20.30;52.00
71733;DHT22;59576;43.478;3.656;2022-11-21T09:26:12;20.20;51.90
71733;DHT22;59576;43.478;3.656;2022-11-21T09:28:39;20.30;51.90
71733;DHT22;59576;43.478;3.656;2022-11-21T09:31:05;20.20;51.90
71733;DHT22;59576;43.478;3.656;2022-11-21T09:33:31;20.20;52.00
71733;DHT22;59576;43.478;3.656;2022-11-21T09:35:58;20.30;52.00
71733;DHT22;59576;43.478;3.656;2022-11-21T09:38:24;20.30;52.00
71733;DHT22;59576;43.478;3.656;2022-11-21T12:52:18;19.90;55.60
71733;DHT22;59576;43.478;3.656;2022-11-21T15:47:25;20.60;53.30
